createdAt,value
2023-05-10T00:00:27.435Z,0.00
2023-05-10T00:01:27.405Z,0.00
2023-05-10T00:02:27.524Z,0.00
2023-05-10T00:03:27.428Z,0.00
2023-05-10T00:04:27.374Z,0.00
2023-05-10T00:05:27.372Z,0.00
2023-05-10T00:06:27.351Z,0.00
2023-05-10T00:07:27.408Z,0.00
2023-05-10T00:08:27.345Z,0.00
2023-05-10T00:09:27.329Z,0.00
2023-05-10T00:10:27.301Z,0.00
2023-05-10T00:11:27.477Z,0.00
2023-05-10T00:12:27.611Z,0.00
2023-05-10T00:13:48.835Z,0.00
2023-05-10T00:14:28.121Z,0.00
2023-05-10T00:15:27.495Z,0.00
2023-05-10T00:16:28.314Z,0.00
2023-05-10T00:17:28.513Z,0.00
2023-05-10T00:18:28.415Z,0.00
2023-05-10T00:19:28.532Z,0.00
2023-05-10T00:20:27.249Z,0.00
2023-05-10T00:21:27.226Z,0.00
2023-05-10T00:22:27.479Z,0.00
2023-05-10T00:23:27.987Z,0.00
2023-05-10T00:24:48.705Z,0.00
2023-05-10T00:25:27.392Z,0.00
2023-05-10T00:26:27.141Z,0.00
2023-05-10T00:27:27.165Z,0.00
2023-05-10T00:28:27.112Z,0.00
2023-05-10T00:29:27.160Z,0.00
2023-05-10T00:30:27.090Z,0.00
2023-05-10T00:31:27.106Z,0.00
2023-05-10T00:32:27.094Z,0.00
2023-05-10T00:33:27.053Z,0.00
2023-05-10T00:34:27.102Z,0.00
2023-05-10T00:35:27.034Z,0.00
2023-05-10T00:36:27.032Z,0.00
2023-05-10T00:37:27.023Z,0.00
2023-05-10T00:38:27.063Z,0.00
2023-05-10T00:39:27.012Z,0.00
2023-05-10T00:40:27.023Z,0.00
2023-05-10T00:41:26.979Z,0.00
2023-05-10T00:42:26.982Z,0.00
2023-05-10T00:43:27.069Z,0.00
2023-05-10T00:44:26.931Z,0.00
2023-05-10T00:45:26.990Z,0.00
2023-05-10T00:46:27.017Z,0.00
2023-05-10T00:47:26.921Z,0.00
2023-05-10T00:48:27.010Z,0.00
2023-05-10T00:49:26.891Z,0.00
2023-05-10T00:50:26.894Z,0.00
2023-05-10T00:51:26.944Z,0.00
2023-05-10T00:52:26.859Z,0.00
2023-05-10T00:53:26.907Z,0.00
2023-05-10T00:54:26.847Z,0.00
2023-05-10T00:55:26.824Z,0.00
2023-05-10T00:56:26.829Z,0.00
2023-05-10T00:57:26.797Z,0.00
2023-05-10T00:58:26.851Z,0.00
2023-05-10T00:59:26.797Z,0.00
2023-05-10T01:00:26.811Z,0.00
2023-05-10T01:01:26.860Z,0.00
2023-05-10T01:02:26.877Z,0.00
2023-05-10T01:03:26.838Z,0.00
2023-05-10T01:04:26.975Z,0.00
2023-05-10T01:05:26.740Z,0.00
2023-05-10T01:06:26.738Z,0.00
2023-05-10T01:07:26.704Z,0.00
2023-05-10T01:08:26.802Z,0.00
2023-05-10T01:09:26.684Z,0.00
2023-05-10T01:10:26.663Z,0.00
2023-05-10T01:11:26.665Z,0.00
2023-05-10T01:12:26.764Z,0.00
2023-05-10T01:13:26.746Z,0.00
2023-05-10T01:14:26.675Z,0.00
2023-05-10T01:15:26.624Z,0.00
2023-05-10T01:16:26.725Z,0.00
2023-05-10T01:17:26.664Z,0.00
2023-05-10T01:18:26.585Z,0.00
2023-05-10T01:19:26.728Z,0.00
2023-05-10T01:20:26.564Z,0.00
2023-05-10T01:21:26.551Z,0.00
2023-05-10T01:22:26.606Z,0.00
2023-05-10T01:23:26.542Z,0.00
2023-05-10T01:24:26.518Z,0.00
2023-05-10T01:25:26.556Z,0.00
2023-05-10T01:26:26.518Z,0.00
2023-05-10T01:27:26.555Z,0.00
2023-05-10T01:28:26.502Z,0.00
2023-05-10T01:29:26.534Z,0.00
2023-05-10T01:30:26.691Z,0.00
2023-05-10T01:31:26.508Z,0.00
2023-05-10T01:32:26.499Z,0.00
2023-05-10T01:33:26.461Z,0.00
2023-05-10T01:34:26.475Z,0.00
2023-05-10T01:35:26.405Z,0.00
2023-05-10T01:36:26.384Z,0.00
2023-05-10T01:37:26.542Z,0.00
2023-05-10T01:38:26.373Z,0.00
2023-05-10T01:39:26.419Z,0.00
2023-05-10T01:40:26.366Z,0.00
2023-05-10T01:41:26.336Z,0.00
2023-05-10T01:42:26.332Z,0.00
2023-05-10T01:43:26.383Z,0.00
2023-05-10T01:44:26.365Z,0.00
2023-05-10T01:45:26.351Z,0.00
2023-05-10T01:46:26.342Z,0.00
2023-05-10T01:47:26.348Z,0.00
2023-05-10T01:48:26.293Z,0.00
2023-05-10T01:49:26.269Z,0.00
2023-05-10T01:50:26.288Z,0.00
2023-05-10T01:51:26.239Z,0.00
2023-05-10T01:52:26.260Z,0.00
2023-05-10T01:53:26.214Z,0.00
2023-05-10T01:54:26.188Z,0.00
2023-05-10T01:55:26.270Z,0.00
2023-05-10T01:56:26.184Z,0.00
2023-05-10T01:57:26.231Z,0.00
2023-05-10T01:58:26.165Z,0.00
2023-05-10T01:59:26.156Z,0.00
2023-05-10T02:00:26.165Z,0.00
2023-05-10T02:01:26.126Z,0.00
2023-05-10T02:02:26.234Z,0.00
2023-05-10T02:03:26.146Z,0.00
2023-05-10T02:04:26.100Z,0.00
2023-05-10T02:05:26.088Z,0.00
2023-05-10T02:06:26.124Z,0.00
2023-05-10T02:07:26.070Z,0.00
2023-05-10T02:08:26.119Z,0.00
2023-05-10T02:09:26.038Z,0.00
2023-05-10T02:10:26.035Z,0.00
2023-05-10T02:11:26.015Z,0.00
2023-05-10T02:12:26.057Z,0.00
2023-05-10T02:13:26.122Z,0.00
2023-05-10T02:14:25.998Z,0.00
2023-05-10T02:15:25.980Z,0.00
2023-05-10T02:16:26.024Z,0.00
2023-05-10T02:17:26.001Z,0.00
2023-05-10T02:18:26.039Z,0.00
2023-05-10T02:19:25.949Z,0.00
2023-05-10T02:20:25.933Z,0.00
2023-05-10T02:21:25.916Z,0.00
2023-05-10T02:22:25.911Z,0.00
2023-05-10T02:23:25.960Z,0.00
2023-05-10T02:24:25.882Z,0.00
2023-05-10T02:25:25.901Z,0.00
2023-05-10T02:26:25.869Z,0.00
2023-05-10T02:27:25.846Z,0.00
2023-05-10T02:28:26.057Z,0.00
2023-05-10T02:29:25.836Z,0.00
2023-05-10T02:30:25.825Z,0.00
2023-05-10T02:31:25.918Z,0.00
2023-05-10T02:32:25.838Z,0.00
2023-05-10T02:33:25.809Z,0.00
2023-05-10T02:34:25.872Z,0.00
2023-05-10T02:35:25.803Z,0.00
2023-05-10T02:36:25.781Z,0.00
2023-05-10T02:37:25.782Z,0.00
2023-05-10T02:38:26.042Z,0.00
2023-05-10T02:39:25.797Z,0.00
2023-05-10T02:40:28.577Z,0.00
2023-05-10T02:41:25.715Z,0.00
2023-05-10T02:42:25.712Z,0.00
2023-05-10T02:43:25.692Z,0.00
2023-05-10T02:44:25.780Z,0.00
2023-05-10T02:45:25.675Z,0.00
2023-05-10T02:46:25.691Z,0.00
2023-05-10T02:47:25.748Z,0.00
2023-05-10T02:48:25.646Z,0.00
2023-05-10T02:49:25.692Z,0.00
2023-05-10T02:50:25.637Z,0.00
2023-05-10T02:51:25.596Z,0.00
2023-05-10T02:52:25.608Z,0.00
2023-05-10T02:53:25.625Z,0.00
2023-05-10T02:54:25.632Z,0.00
2023-05-10T02:55:25.578Z,0.00
2023-05-10T02:56:25.557Z,0.00
2023-05-10T02:57:25.542Z,0.00
2023-05-10T02:58:25.533Z,0.00
2023-05-10T02:59:25.589Z,0.00
2023-05-10T03:00:25.590Z,0.00
2023-05-10T03:01:25.599Z,0.00
2023-05-10T03:02:25.518Z,0.00
2023-05-10T03:03:25.498Z,0.00
2023-05-10T03:04:25.527Z,0.00
2023-05-10T03:05:25.455Z,0.00
2023-05-10T03:06:25.512Z,0.00
2023-05-10T03:07:25.468Z,0.00
2023-05-10T03:08:25.423Z,0.00
2023-05-10T03:09:25.475Z,0.00
2023-05-10T03:10:25.432Z,0.00
2023-05-10T03:11:25.464Z,0.00
2023-05-10T03:12:25.368Z,0.00
2023-05-10T03:13:25.464Z,0.00
2023-05-10T03:14:25.412Z,0.00
2023-05-10T03:15:25.344Z,0.00
2023-05-10T03:16:25.441Z,0.00
2023-05-10T03:17:25.431Z,0.00
2023-05-10T03:18:25.321Z,0.00
2023-05-10T03:19:25.304Z,0.00
2023-05-10T03:20:25.311Z,4.00
2023-05-10T03:21:25.346Z,4.00
2023-05-10T03:22:25.284Z,4.00
2023-05-10T03:23:25.306Z,0.00
2023-05-10T03:24:25.249Z,4.00
2023-05-10T03:25:25.324Z,4.00
2023-05-10T03:26:25.297Z,4.00
2023-05-10T03:27:25.226Z,4.00
2023-05-10T03:28:25.225Z,4.00
2023-05-10T03:29:25.272Z,8.00
2023-05-10T03:30:25.230Z,8.00
2023-05-10T03:31:25.276Z,8.00
2023-05-10T03:32:25.208Z,8.00
2023-05-10T03:33:25.194Z,8.00
2023-05-10T03:34:25.167Z,12.00
2023-05-10T03:35:25.252Z,8.00
2023-05-10T03:36:25.199Z,12.00
2023-05-10T03:37:25.114Z,12.00
2023-05-10T03:38:25.349Z,12.00
2023-05-10T03:39:25.096Z,16.00
2023-05-10T03:40:25.094Z,12.00
2023-05-10T03:41:25.074Z,16.00
2023-05-10T03:42:25.142Z,20.00
2023-05-10T03:43:25.054Z,24.00
2023-05-10T03:44:25.107Z,24.00
2023-05-10T03:45:25.038Z,28.00
2023-05-10T03:46:25.134Z,28.00
2023-05-10T03:47:25.080Z,28.00
2023-05-10T03:48:25.065Z,28.00
2023-05-10T03:49:24.976Z,32.00
2023-05-10T03:50:25.012Z,40.00
2023-05-10T03:51:24.980Z,40.00
2023-05-10T03:52:24.997Z,44.00
2023-05-10T03:53:25.009Z,48.00
2023-05-10T03:54:24.951Z,56.00
2023-05-10T03:55:24.978Z,60.00
2023-05-10T03:56:24.917Z,68.00
2023-05-10T03:57:24.893Z,68.00
2023-05-10T03:58:24.950Z,68.00
2023-05-10T03:59:24.933Z,68.00
2023-05-10T04:00:24.989Z,76.00
2023-05-10T04:01:24.876Z,76.00
2023-05-10T04:02:24.949Z,76.00
2023-05-10T04:03:24.947Z,76.00
2023-05-10T04:04:24.850Z,92.00
2023-05-10T04:05:24.828Z,100.00
2023-05-10T04:06:24.854Z,104.00
2023-05-10T04:07:24.873Z,108.00
2023-05-10T04:08:24.865Z,116.00
2023-05-10T04:09:24.790Z,116.00
2023-05-10T04:10:24.821Z,124.00
2023-05-10T04:11:24.764Z,124.00
2023-05-10T04:12:24.758Z,128.00
2023-05-10T04:13:24.863Z,132.00
2023-05-10T04:14:24.791Z,136.00
2023-05-10T04:15:24.727Z,140.00
2023-05-10T04:16:24.738Z,144.00
2023-05-10T04:17:24.707Z,144.00
2023-05-10T04:18:24.718Z,156.00
2023-05-10T04:19:24.725Z,164.00
2023-05-10T04:20:24.670Z,172.00
2023-05-10T04:21:24.735Z,180.00
2023-05-10T04:22:24.661Z,184.00
2023-05-10T04:23:24.738Z,204.00
2023-05-10T04:24:24.651Z,212.00
2023-05-10T04:25:24.649Z,216.00
2023-05-10T04:26:24.607Z,216.00
2023-05-10T04:27:24.588Z,232.00
2023-05-10T04:28:24.631Z,236.00
2023-05-10T04:29:24.636Z,232.00
2023-05-10T04:30:24.548Z,240.00
2023-05-10T04:31:24.688Z,252.00
2023-05-10T04:32:24.574Z,272.00
2023-05-10T04:33:24.594Z,276.00
2023-05-10T04:34:24.504Z,292.00
2023-05-10T04:35:24.495Z,292.00
2023-05-10T04:36:24.486Z,312.00
2023-05-10T04:37:24.515Z,336.00
2023-05-10T04:38:24.524Z,352.00
2023-05-10T04:39:24.453Z,356.00
2023-05-10T04:40:24.459Z,372.00
2023-05-10T04:41:24.427Z,372.00
2023-05-10T04:42:24.417Z,400.00
2023-05-10T04:43:24.460Z,428.00
2023-05-10T04:44:24.479Z,440.00
2023-05-10T04:45:24.390Z,440.00
2023-05-10T04:46:24.404Z,448.00
2023-05-10T04:47:24.405Z,432.00
2023-05-10T04:48:24.356Z,424.00
2023-05-10T04:49:24.435Z,472.00
2023-05-10T04:50:24.374Z,520.00
2023-05-10T04:51:24.332Z,504.00
2023-05-10T04:52:24.339Z,484.00
2023-05-10T04:53:24.312Z,564.00
2023-05-10T04:54:24.372Z,552.00
2023-05-10T04:55:24.275Z,584.00
2023-05-10T04:56:24.293Z,576.00
2023-05-10T04:57:24.262Z,612.00
2023-05-10T04:58:24.273Z,600.00
2023-05-10T04:59:24.309Z,628.00
2023-05-10T05:00:24.233Z,684.00
2023-05-10T05:01:24.266Z,720.00
2023-05-10T05:02:24.308Z,748.00
2023-05-10T05:03:24.280Z,764.00
2023-05-10T05:04:24.200Z,788.00
2023-05-10T05:05:24.247Z,804.00
2023-05-10T05:06:24.170Z,812.00
2023-05-10T05:07:24.169Z,808.00
2023-05-10T05:08:24.161Z,828.00
2023-05-10T05:09:24.168Z,808.00
2023-05-10T05:10:24.201Z,836.00
2023-05-10T05:11:24.132Z,828.00
2023-05-10T05:12:24.131Z,808.00
2023-05-10T05:13:24.151Z,808.00
2023-05-10T05:14:24.081Z,808.00
2023-05-10T05:15:24.141Z,736.00
2023-05-10T05:16:24.309Z,756.00
2023-05-10T05:17:24.060Z,800.00
2023-05-10T05:18:24.042Z,824.00
2023-05-10T05:19:24.044Z,940.00
2023-05-10T05:20:24.111Z,952.00
2023-05-10T05:21:24.019Z,952.00
2023-05-10T05:22:24.008Z,948.00
2023-05-10T05:23:24.012Z,984.00
2023-05-10T05:24:23.992Z,1016.00
2023-05-10T05:25:24.047Z,1048.00
2023-05-10T05:26:23.963Z,1056.00
2023-05-10T05:27:23.931Z,1072.00
2023-05-10T05:28:23.971Z,1088.00
2023-05-10T05:29:23.981Z,1128.00
2023-05-10T05:30:23.929Z,1144.00
2023-05-10T05:31:23.961Z,1100.00
2023-05-10T05:32:23.907Z,1084.00
2023-05-10T05:33:23.987Z,1088.00
2023-05-10T05:34:23.882Z,1004.00
2023-05-10T05:35:23.922Z,1012.00
2023-05-10T05:36:23.871Z,932.00
2023-05-10T05:37:23.839Z,764.00
2023-05-10T05:38:23.843Z,820.00
2023-05-10T05:39:23.906Z,792.00
2023-05-10T05:40:23.871Z,800.00
2023-05-10T05:41:23.909Z,800.00
2023-05-10T05:42:23.802Z,752.00
2023-05-10T05:43:23.773Z,832.00
2023-05-10T05:44:23.770Z,796.00
2023-05-10T05:45:23.821Z,680.00
2023-05-10T05:46:23.795Z,676.00
2023-05-10T05:47:23.765Z,664.00
2023-05-10T05:48:23.776Z,672.00
2023-05-10T05:49:23.716Z,724.00
2023-05-10T05:50:23.762Z,664.00
2023-05-10T05:51:23.725Z,684.00
2023-05-10T05:52:23.693Z,704.00
2023-05-10T05:53:23.682Z,688.00
2023-05-10T05:54:23.665Z,720.00
2023-05-10T05:55:23.731Z,708.00
2023-05-10T05:56:23.647Z,792.00
2023-05-10T05:57:23.618Z,840.00
2023-05-10T05:58:23.680Z,992.00
2023-05-10T05:59:23.653Z,1136.00
2023-05-10T06:00:23.851Z,1140.00
2023-05-10T06:01:23.633Z,1196.00
2023-05-10T06:02:23.670Z,1328.00
2023-05-10T06:03:23.602Z,1184.00
2023-05-10T06:04:23.602Z,1156.00
2023-05-10T06:05:23.605Z,1108.00
2023-05-10T06:06:23.536Z,940.00
2023-05-10T06:07:23.522Z,756.00
2023-05-10T06:08:23.511Z,916.00
2023-05-10T06:09:23.492Z,1100.00
2023-05-10T06:10:23.548Z,1264.00
2023-05-10T06:11:23.476Z,1372.00
2023-05-10T06:12:23.515Z,1560.00
2023-05-10T06:13:23.563Z,1576.00
2023-05-10T06:14:23.429Z,1680.00
2023-05-10T06:15:23.484Z,1740.00
2023-05-10T06:16:23.454Z,1792.00
2023-05-10T06:17:23.467Z,1808.00
2023-05-10T06:18:23.457Z,1740.00
2023-05-10T06:19:23.404Z,1768.00
2023-05-10T06:20:23.433Z,1916.00
2023-05-10T06:21:23.375Z,2008.00
2023-05-10T06:22:23.428Z,2052.00
2023-05-10T06:23:23.352Z,2196.00
2023-05-10T06:24:23.343Z,2320.00
2023-05-10T06:25:23.392Z,2432.00
2023-05-10T06:26:23.354Z,2768.00
2023-05-10T06:27:23.369Z,2944.00
2023-05-10T06:28:23.300Z,2812.00
2023-05-10T06:29:23.299Z,2492.00
2023-05-10T06:30:23.282Z,2172.00
2023-05-10T06:31:23.303Z,1724.00
2023-05-10T06:32:23.393Z,1504.00
2023-05-10T06:33:23.250Z,1420.00
2023-05-10T06:34:23.266Z,1300.00
2023-05-10T06:35:23.232Z,1268.00
2023-05-10T06:36:23.206Z,1260.00
2023-05-10T06:37:23.266Z,1232.00
2023-05-10T06:38:23.195Z,1180.00
2023-05-10T06:39:23.487Z,1228.00
2023-05-10T06:40:23.207Z,1128.00
2023-05-10T06:41:24.688Z,1228.00
2023-05-10T06:42:23.154Z,1232.00
2023-05-10T06:43:23.145Z,1436.00
2023-05-10T06:44:23.203Z,1772.00
2023-05-10T06:45:23.115Z,2056.00
2023-05-10T06:46:23.168Z,2452.00
2023-05-10T06:47:23.142Z,2760.00
2023-05-10T06:48:23.183Z,2764.00
2023-05-10T06:49:23.149Z,3380.00
2023-05-10T06:50:23.066Z,4456.00
2023-05-10T06:51:23.057Z,4996.00
2023-05-10T06:52:23.044Z,5116.00
2023-05-10T06:53:23.055Z,4532.00
2023-05-10T06:54:23.112Z,3844.00
2023-05-10T06:55:23.013Z,3452.00
2023-05-10T06:56:23.028Z,3212.00
2023-05-10T06:57:31.435Z,3316.00
2023-05-10T06:58:23.999Z,3900.00
2023-05-10T06:59:23.047Z,3660.00
2023-05-10T07:00:23.103Z,3312.00
2023-05-10T07:01:23.138Z,2864.00
2023-05-10T07:02:23.032Z,2912.00
2023-05-10T07:03:22.967Z,3200.00
2023-05-10T07:04:23.022Z,3432.00
2023-05-10T07:05:22.981Z,2968.00
2023-05-10T07:06:32.843Z,2256.00
2023-05-10T07:07:23.898Z,2080.00
2023-05-10T07:08:22.933Z,2144.00
2023-05-10T07:09:22.855Z,2300.00
2023-05-10T07:10:22.885Z,2216.00
2023-05-10T07:11:22.877Z,2136.00
2023-05-10T07:12:22.865Z,2288.00
2023-05-10T07:13:23.185Z,2580.00
2023-05-10T07:14:22.812Z,2384.00
2023-05-10T07:15:22.835Z,3016.00
2023-05-10T07:16:22.963Z,2928.00
2023-05-10T07:17:22.866Z,2608.00
2023-05-10T07:18:22.873Z,2616.00
2023-05-10T07:19:22.780Z,2836.00
2023-05-10T07:20:22.769Z,3080.00
2023-05-10T07:21:22.803Z,2980.00
2023-05-10T07:22:22.735Z,2728.00
2023-05-10T07:23:23.022Z,2284.00
2023-05-10T07:24:22.704Z,1936.00
2023-05-10T07:25:22.705Z,2000.00
2023-05-10T07:26:22.698Z,1884.00
2023-05-10T07:27:22.717Z,1780.00
2023-05-10T07:28:22.717Z,1992.00
2023-05-10T07:29:22.657Z,2256.00
2023-05-10T07:30:22.753Z,2376.00
2023-05-10T07:31:22.686Z,2324.00
2023-05-10T07:32:22.802Z,2316.00
2023-05-10T07:33:22.780Z,2432.00
2023-05-10T07:34:22.599Z,2756.00
2023-05-10T07:35:22.589Z,2668.00
2023-05-10T07:36:22.675Z,2616.00
2023-05-10T07:37:22.656Z,2620.00
2023-05-10T07:38:22.640Z,2916.00
2023-05-10T07:39:27.446Z,2856.00
2023-05-10T07:40:23.552Z,2664.00
2023-05-10T07:41:22.537Z,2756.00
2023-05-10T07:42:22.582Z,3284.00
2023-05-10T07:43:22.510Z,3920.00
2023-05-10T07:44:22.526Z,4548.00
2023-05-10T07:45:22.519Z,5020.00
2023-05-10T07:46:22.608Z,5368.00
2023-05-10T07:47:22.503Z,5164.00
2023-05-10T07:48:22.520Z,4980.00
2023-05-10T07:49:22.458Z,4976.00
2023-05-10T07:50:22.572Z,4864.00
2023-05-10T07:51:22.446Z,4736.00
2023-05-10T07:52:22.788Z,4424.00
2023-05-10T07:53:22.491Z,4024.00
2023-05-10T07:54:22.463Z,3756.00
2023-05-10T07:55:22.382Z,3604.00
2023-05-10T07:56:22.441Z,3452.00
2023-05-10T07:57:22.358Z,3588.00
2023-05-10T07:58:22.342Z,3688.00
2023-05-10T07:59:22.402Z,3940.00
2023-05-10T08:00:22.336Z,4324.00
2023-05-10T08:01:22.372Z,4416.00
2023-05-10T08:02:22.348Z,4408.00
2023-05-10T08:03:22.341Z,4488.00
2023-05-10T08:04:22.491Z,4792.00
2023-05-10T08:05:22.302Z,5072.00
2023-05-10T08:06:22.266Z,5504.00
2023-05-10T08:07:22.381Z,5592.00
2023-05-10T08:08:22.255Z,5764.00
2023-05-10T08:09:22.265Z,6092.00
2023-05-10T08:10:22.266Z,6816.00
2023-05-10T08:11:22.198Z,7540.00
2023-05-10T08:12:22.200Z,7876.00
2023-05-10T08:13:22.178Z,7848.00
2023-05-10T08:14:22.228Z,8172.00
2023-05-10T08:15:22.174Z,8460.00
2023-05-10T08:16:22.247Z,8536.00
2023-05-10T08:17:23.489Z,8492.00
2023-05-10T08:18:22.354Z,8380.00
2023-05-10T08:19:22.127Z,8388.00
2023-05-10T08:20:22.138Z,8316.00
2023-05-10T08:21:22.090Z,8236.00
2023-05-10T08:22:22.114Z,8212.00
2023-05-10T08:23:22.106Z,8252.00
2023-05-10T08:24:22.145Z,8280.00
2023-05-10T08:25:22.107Z,7656.00
2023-05-10T08:26:22.046Z,7576.00
2023-05-10T08:27:22.030Z,7800.00
2023-05-10T08:28:22.014Z,7448.00
2023-05-10T08:29:22.045Z,7240.00
2023-05-10T08:30:22.079Z,7332.00
2023-05-10T08:31:22.042Z,7428.00
2023-05-10T08:32:21.977Z,7456.00
2023-05-10T08:33:21.970Z,7644.00
2023-05-10T08:34:22.242Z,7436.00
2023-05-10T08:35:22.067Z,7120.00
2023-05-10T08:36:21.934Z,6764.00
2023-05-10T08:37:21.923Z,6940.00
2023-05-10T08:38:21.929Z,6764.00
2023-05-10T08:39:29.833Z,6604.00
2023-05-10T08:40:22.897Z,6004.00
2023-05-10T08:41:21.987Z,6128.00
2023-05-10T08:42:21.864Z,6372.00
2023-05-10T08:43:21.880Z,6304.00
2023-05-10T08:44:21.848Z,6016.00
2023-05-10T08:45:21.868Z,5720.00
2023-05-10T08:46:21.930Z,5016.00
2023-05-10T08:47:21.853Z,5648.00
2023-05-10T08:48:21.819Z,6012.00
2023-05-10T08:49:21.803Z,5648.00
2023-05-10T08:50:21.842Z,5948.00
2023-05-10T08:51:21.928Z,5972.00
2023-05-10T08:52:21.781Z,5976.00
2023-05-10T08:53:21.910Z,6592.00
2023-05-10T08:54:21.763Z,6556.00
2023-05-10T08:55:21.725Z,6576.00
2023-05-10T08:56:21.746Z,6496.00
2023-05-10T08:57:21.733Z,6692.00
2023-05-10T08:58:21.751Z,6728.00
2023-05-10T08:59:21.700Z,6904.00
2023-05-10T09:00:21.704Z,6924.00
2023-05-10T09:01:21.714Z,6480.00
2023-05-10T09:02:21.672Z,6276.00
2023-05-10T09:03:21.830Z,6272.00
2023-05-10T09:04:21.742Z,5820.00
2023-05-10T09:05:21.707Z,6272.00
2023-05-10T09:06:21.628Z,6732.00
2023-05-10T09:07:21.597Z,7004.00
2023-05-10T09:08:21.883Z,7244.00
2023-05-10T09:09:21.589Z,7704.00
2023-05-10T09:10:21.603Z,7792.00
2023-05-10T09:11:21.646Z,7660.00
2023-05-10T09:12:21.679Z,7456.00
2023-05-10T09:13:21.603Z,7404.00
2023-05-10T09:14:21.557Z,7384.00
2023-05-10T09:15:21.560Z,7300.00
2023-05-10T09:16:22.480Z,7028.00
2023-05-10T09:17:21.631Z,6768.00
2023-05-10T09:18:21.634Z,6272.00
2023-05-10T09:19:21.480Z,5940.00
2023-05-10T09:20:21.501Z,5572.00
2023-05-10T09:21:21.491Z,5232.00
2023-05-10T09:22:21.519Z,4860.00
2023-05-10T09:23:21.441Z,4656.00
2023-05-10T09:24:21.424Z,4620.00
2023-05-10T09:25:21.453Z,4576.00
2023-05-10T09:26:21.460Z,4512.00
2023-05-10T09:27:21.477Z,4544.00
2023-05-10T09:28:21.407Z,4744.00
2023-05-10T09:29:21.367Z,5144.00
2023-05-10T09:30:21.423Z,5616.00
2023-05-10T09:31:21.578Z,6084.00
2023-05-10T09:32:21.468Z,6584.00
2023-05-10T09:33:21.334Z,6968.00
2023-05-10T09:34:21.345Z,7048.00
2023-05-10T09:35:21.348Z,7088.00
2023-05-10T09:36:21.302Z,7004.00
2023-05-10T09:37:21.280Z,7080.00
2023-05-10T09:38:21.271Z,7044.00
2023-05-10T09:39:21.312Z,7192.00
2023-05-10T09:40:21.309Z,7124.00
2023-05-10T09:41:21.249Z,6904.00
2023-05-10T09:42:21.306Z,7240.00
2023-05-10T09:43:21.229Z,6912.00
2023-05-10T09:44:21.227Z,6628.00
2023-05-10T09:45:21.190Z,6696.00
2023-05-10T09:46:21.229Z,7056.00
2023-05-10T09:47:21.263Z,7220.00
2023-05-10T09:48:21.240Z,7184.00
2023-05-10T09:49:21.171Z,7396.00
2023-05-10T09:50:21.150Z,7724.00
2023-05-10T09:51:21.145Z,7872.00
2023-05-10T09:52:21.215Z,7908.00
2023-05-10T09:53:21.132Z,7812.00
2023-05-10T09:54:21.106Z,7292.00
2023-05-10T09:55:21.079Z,6932.00
2023-05-10T09:56:21.081Z,6608.00
2023-05-10T09:57:21.136Z,6168.00
2023-05-10T09:58:21.149Z,6012.00
2023-05-10T09:59:21.047Z,6660.00
2023-05-10T10:00:21.087Z,6992.00
2023-05-10T10:01:21.061Z,8236.00
2023-05-10T10:02:21.022Z,7640.00
2023-05-10T10:03:21.078Z,7652.00
2023-05-10T10:04:21.038Z,7640.00
2023-05-10T10:05:20.981Z,7448.00
2023-05-10T10:06:29.576Z,7320.00
2023-05-10T10:07:21.965Z,7752.00
2023-05-10T10:08:21.033Z,8312.00
2023-05-10T10:09:20.957Z,8804.00
2023-05-10T10:10:20.986Z,9172.00
2023-05-10T10:11:20.925Z,9336.00
2023-05-10T10:12:20.934Z,9808.00
2023-05-10T10:13:20.937Z,9456.00
2023-05-10T10:14:20.963Z,9668.00
2023-05-10T10:15:21.107Z,9132.00
2023-05-10T10:16:21.002Z,9856.00
2023-05-10T10:17:20.927Z,9584.00
2023-05-10T10:18:20.879Z,9816.00
2023-05-10T10:19:20.913Z,9184.00
2023-05-10T10:20:20.933Z,9316.00
2023-05-10T10:21:20.867Z,7228.00
2023-05-10T10:22:20.864Z,9156.00
2023-05-10T10:23:20.806Z,9052.00
2023-05-10T10:24:20.888Z,9368.00
2023-05-10T10:25:20.787Z,8256.00
2023-05-10T10:26:20.798Z,8136.00
2023-05-10T10:27:20.764Z,8336.00
2023-05-10T10:28:20.748Z,9280.00
2023-05-10T10:29:20.815Z,9048.00
2023-05-10T10:30:20.759Z,8488.00
2023-05-10T10:31:20.766Z,8416.00
2023-05-10T10:32:20.817Z,8200.00
2023-05-10T10:34:21.791Z,7744.00
2023-05-10T10:35:20.738Z,8824.00
2023-05-10T10:36:20.762Z,7540.00
2023-05-10T10:37:20.675Z,7596.00
2023-05-10T10:38:20.644Z,7604.00
2023-05-10T10:39:20.629Z,7828.00
2023-05-10T10:40:20.674Z,8648.00
2023-05-10T10:41:20.612Z,8096.00
2023-05-10T10:42:20.600Z,7616.00
2023-05-10T10:43:20.631Z,7468.00
2023-05-10T10:44:20.593Z,7888.00
2023-05-10T10:45:20.581Z,7832.00
2023-05-10T10:46:20.666Z,7740.00
2023-05-10T10:47:20.549Z,7388.00
2023-05-10T10:48:20.590Z,7140.00
2023-05-10T10:49:20.605Z,7056.00
2023-05-10T10:50:20.524Z,6944.00
2023-05-10T10:51:20.511Z,6908.00
2023-05-10T10:52:20.521Z,6824.00
2023-05-10T10:53:20.560Z,6816.00
2023-05-10T10:54:20.534Z,6764.00
2023-05-10T10:55:20.660Z,7028.00
2023-05-10T10:56:20.483Z,7396.00
2023-05-10T10:57:20.501Z,7536.00
2023-05-10T10:58:20.491Z,7448.00
2023-05-10T10:59:20.516Z,7284.00
2023-05-10T11:00:20.534Z,6756.00
2023-05-10T11:01:20.517Z,6028.00
2023-05-10T11:02:20.384Z,5736.00
2023-05-10T11:03:20.386Z,5924.00
2023-05-10T11:04:20.434Z,6288.00
2023-05-10T11:05:20.410Z,6212.00
2023-05-10T11:06:20.333Z,5960.00
2023-05-10T11:07:20.323Z,5360.00
2023-05-10T11:08:20.356Z,4676.00
2023-05-10T11:09:20.351Z,4644.00
2023-05-10T11:10:20.353Z,4824.00
2023-05-10T11:11:20.356Z,5528.00
2023-05-10T11:12:20.301Z,6380.00
2023-05-10T11:13:20.280Z,7104.00
2023-05-10T11:14:20.268Z,7636.00
2023-05-10T11:15:20.282Z,8264.00
2023-05-10T11:16:20.341Z,7892.00
2023-05-10T11:17:20.211Z,8020.00
2023-05-10T11:18:20.216Z,8280.00
2023-05-10T11:19:20.294Z,8452.00
2023-05-10T11:20:20.340Z,7928.00
2023-05-10T11:21:20.247Z,7884.00
2023-05-10T11:22:20.166Z,7924.00
2023-05-10T11:23:20.146Z,7796.00
2023-05-10T11:24:20.190Z,7804.00
2023-05-10T11:25:20.178Z,8016.00
2023-05-10T11:26:20.173Z,8208.00
2023-05-10T11:27:20.119Z,8496.00
2023-05-10T11:28:20.105Z,7920.00
2023-05-10T11:29:20.098Z,7380.00
2023-05-10T11:30:20.224Z,6792.00
2023-05-10T11:31:20.318Z,6276.00
2023-05-10T11:32:20.100Z,6344.00
2023-05-10T11:33:20.089Z,6492.00
2023-05-10T11:34:20.046Z,6660.00
2023-05-10T11:35:20.034Z,6832.00
2023-05-10T11:36:20.069Z,7232.00
2023-05-10T11:37:20.006Z,7692.00
2023-05-10T11:38:19.986Z,7776.00
2023-05-10T11:39:20.053Z,8308.00
2023-05-10T11:40:20.215Z,7412.00
2023-05-10T11:41:19.952Z,7276.00
2023-05-10T11:42:19.938Z,7264.00
2023-05-10T11:43:19.932Z,7076.00
2023-05-10T11:44:20.001Z,6796.00
2023-05-10T11:45:19.992Z,6616.00
2023-05-10T11:46:19.924Z,6776.00
2023-05-10T11:47:19.889Z,6992.00
2023-05-10T11:48:19.886Z,7088.00
2023-05-10T11:49:19.937Z,6920.00
2023-05-10T11:50:20.046Z,6600.00
2023-05-10T11:51:19.851Z,6208.00
2023-05-10T11:52:19.867Z,5776.00
2023-05-10T11:53:19.846Z,5504.00
2023-05-10T11:54:19.891Z,5420.00
2023-05-10T11:55:19.809Z,5836.00
2023-05-10T11:56:19.796Z,7400.00
2023-05-10T11:57:19.797Z,7016.00
2023-05-10T11:58:19.771Z,6772.00
2023-05-10T11:59:19.817Z,7536.00
2023-05-10T12:00:20.029Z,7364.00
2023-05-10T12:01:19.736Z,7724.00
2023-05-10T12:02:19.844Z,7656.00
2023-05-10T12:03:19.811Z,6516.00
2023-05-10T12:04:20.101Z,6400.00
2023-05-10T12:05:19.723Z,6888.00
2023-05-10T12:06:19.816Z,6792.00
2023-05-10T12:07:19.682Z,6060.00
2023-05-10T12:08:19.708Z,6324.00
2023-05-10T12:09:28.277Z,6708.00
2023-05-10T12:10:20.909Z,6564.00
2023-05-10T12:11:19.642Z,5672.00
2023-05-10T12:12:19.640Z,5568.00
2023-05-10T12:13:19.684Z,5352.00
2023-05-10T12:14:19.618Z,5572.00
2023-05-10T12:15:19.588Z,5796.00
2023-05-10T12:16:19.677Z,5908.00
2023-05-10T12:17:19.631Z,6852.00
2023-05-10T12:18:19.569Z,6788.00
2023-05-10T12:19:19.601Z,6788.00
2023-05-10T12:20:19.732Z,6340.00
2023-05-10T12:21:19.553Z,6156.00
2023-05-10T12:22:19.551Z,6036.00
2023-05-10T12:23:19.556Z,5764.00
2023-05-10T12:24:19.524Z,5648.00
2023-05-10T12:25:19.514Z,5320.00
2023-05-10T12:26:19.464Z,5292.00
2023-05-10T12:27:19.477Z,5472.00
2023-05-10T12:28:19.514Z,5596.00
2023-05-10T12:29:19.466Z,6064.00
2023-05-10T12:30:19.460Z,6268.00
2023-05-10T12:31:19.470Z,6376.00